createdAt,value
2017-06-12T00:02:24.486Z,2.87
2017-06-12T00:04:52.775Z,2.63
2017-06-12T00:07:21.875Z,2.60
2017-06-12T00:09:50.165Z,2.90
2017-06-12T00:12:18.491Z,2.67
2017-06-12T00:14:46.788Z,2.70
2017-06-12T00:17:15.127Z,2.97
2017-06-12T00:19:43.423Z,3.67
2017-06-12T00:22:11.723Z,2.87
2017-06-12T00:24:40.815Z,2.60
2017-06-12T00:27:09.874Z,3.00
2017-06-12T00:29:38.206Z,2.87
2017-06-12T00:32:06.499Z,3.53
2017-06-12T00:34:34.827Z,3.13
2017-06-12T00:37:03.180Z,2.77
2017-06-12T00:39:31.509Z,2.73
2017-06-12T00:42:00.567Z,3.60
2017-06-12T00:44:28.908Z,3.23
2017-06-12T00:46:57.194Z,2.67
2017-06-12T00:49:25.539Z,2.90
2017-06-12T00:51:53.831Z,2.47
2017-06-12T00:54:25.934Z,2.97
2017-06-12T00:56:54.227Z,3.40
2017-06-12T00:59:22.550Z,3.27
2017-06-12T01:01:50.883Z,3.73
2017-06-12T01:04:19.208Z,3.27
2017-06-12T01:06:47.487Z,4.30
2017-06-12T01:09:16.554Z,3.83
2017-06-12T01:11:44.880Z,3.93
2017-06-12T01:14:13.178Z,4.17
2017-06-12T01:16:41.520Z,4.87
2017-06-12T01:19:09.814Z,4.00
2017-06-12T01:22:02.902Z,5.10
2017-06-12T01:24:31.257Z,5.57
2017-06-12T01:26:59.554Z,5.33
2017-06-12T01:29:27.839Z,5.43
2017-06-12T01:31:56.177Z,5.20
2017-06-12T01:34:24.462Z,5.57
2017-06-12T01:36:52.789Z,6.27
2017-06-12T01:39:21.083Z,5.63
2017-06-12T01:41:49.434Z,5.83
2017-06-12T01:44:17.720Z,6.40
2017-06-12T01:46:46.013Z,6.50
2017-06-12T01:49:14.341Z,6.83
2017-06-12T01:51:42.645Z,6.53
2017-06-12T01:54:10.923Z,5.63
2017-06-12T01:56:39.251Z,6.60
2017-06-12T01:59:07.552Z,6.50
2017-06-12T02:01:35.835Z,6.87
2017-06-12T02:04:04.940Z,5.63
2017-06-12T02:06:33.248Z,5.10
2017-06-12T02:09:01.553Z,6.07
2017-06-12T02:11:30.639Z,6.13
2017-06-12T02:13:58.976Z,6.90
2017-06-12T02:16:27.272Z,6.13
2017-06-12T02:18:55.571Z,6.40
2017-06-12T02:21:23.920Z,7.10
2017-06-12T02:23:54.019Z,6.23
2017-06-12T02:26:22.300Z,7.80
2017-06-12T02:28:50.623Z,7.70
2017-06-12T02:31:18.912Z,8.03
2017-06-12T02:33:48.175Z,7.63
2017-06-12T02:36:39.252Z,7.13
2017-06-12T02:39:07.592Z,6.23
2017-06-12T02:41:36.660Z,6.20
2017-06-12T02:44:04.962Z,5.70
2017-06-12T02:46:33.347Z,7.50
2017-06-12T02:49:01.644Z,6.43
2017-06-12T02:51:34.923Z,7.13
2017-06-12T02:54:03.768Z,6.47
2017-06-12T02:56:32.069Z,7.00
2017-06-12T02:59:00.415Z,6.37
2017-06-12T03:01:28.715Z,5.80
2017-06-12T03:03:57.768Z,6.00
2017-06-12T03:06:26.112Z,6.30
2017-06-12T03:08:54.402Z,6.50
2017-06-12T03:11:23.452Z,6.10
2017-06-12T03:13:51.793Z,5.40
2017-06-12T03:16:20.091Z,6.47
2017-06-12T03:18:48.399Z,5.70
2017-06-12T03:21:16.724Z,6.13
2017-06-12T03:23:45.061Z,7.40
2017-06-12T03:26:13.344Z,6.70
2017-06-12T03:28:41.632Z,6.77
2017-06-12T03:31:09.965Z,7.17
2017-06-12T03:33:38.312Z,5.90
2017-06-12T03:36:06.605Z,5.80
2017-06-12T03:38:34.897Z,6.10
2017-06-12T03:41:03.867Z,5.60
2017-06-12T03:43:32.192Z,6.30
2017-06-12T03:46:00.519Z,6.00
2017-06-12T03:48:28.843Z,6.47
2017-06-12T03:50:57.136Z,6.17
2017-06-12T03:53:25.456Z,5.50
2017-06-12T03:55:53.784Z,6.20
2017-06-12T03:58:22.294Z,5.80
2017-06-12T04:00:51.347Z,5.90
2017-06-12T04:03:19.725Z,5.53
2017-06-12T04:05:48.007Z,5.40
2017-06-12T04:08:16.300Z,6.07
2017-06-12T04:10:44.630Z,6.40
2017-06-12T04:13:12.930Z,5.63
2017-06-12T04:15:41.256Z,6.50
2017-06-12T04:18:09.547Z,6.30
2017-06-12T04:20:37.876Z,5.37
2017-06-12T04:23:06.159Z,5.50
2017-06-12T04:25:34.450Z,5.27
2017-06-12T04:28:02.776Z,5.77
2017-06-12T04:30:31.079Z,4.90
2017-06-12T04:32:59.415Z,4.67
2017-06-12T04:35:27.708Z,5.03
2017-06-12T04:37:55.994Z,4.80
2017-06-12T04:40:25.095Z,4.53
2017-06-12T04:42:53.382Z,5.87
2017-06-12T04:45:21.739Z,4.70
2017-06-12T04:47:50.030Z,5.30
2017-06-12T04:50:18.355Z,4.63
2017-06-12T04:52:47.526Z,4.60
2017-06-12T04:55:15.879Z,4.57
2017-06-12T04:57:44.171Z,4.50
2017-06-12T05:00:12.457Z,4.37
2017-06-12T05:02:40.819Z,4.67
2017-06-12T05:05:09.113Z,4.90
2017-06-12T05:07:38.172Z,4.80
2017-06-12T05:10:06.514Z,4.67
2017-06-12T05:12:34.876Z,4.40
2017-06-12T05:15:03.167Z,4.80
2017-06-12T05:17:31.460Z,4.60
2017-06-12T05:19:59.791Z,5.17
2017-06-12T05:22:28.883Z,5.53
2017-06-12T05:24:57.980Z,5.80
2017-06-12T05:27:26.271Z,4.90
2017-06-12T05:29:54.612Z,6.07
2017-06-12T05:32:22.903Z,5.57
2017-06-12T05:34:51.204Z,6.33
2017-06-12T05:37:20.310Z,6.07
2017-06-12T05:39:48.591Z,7.03
2017-06-12T05:42:16.942Z,6.20
2017-06-12T05:44:45.217Z,5.63
2017-06-12T05:47:13.516Z,6.10
2017-06-12T05:49:41.843Z,6.90
2017-06-12T05:52:10.136Z,6.80
2017-06-12T05:54:38.428Z,6.07
2017-06-12T05:57:07.528Z,5.97
2017-06-12T05:59:35.827Z,6.10
2017-06-12T06:02:04.113Z,5.63
2017-06-12T06:04:32.448Z,5.63
2017-06-12T06:07:00.735Z,6.90
2017-06-12T06:09:29.065Z,6.50
2017-06-12T06:11:57.358Z,6.00
2017-06-12T06:14:25.704Z,6.03
2017-06-12T06:16:53.992Z,5.67
2017-06-12T06:19:23.055Z,5.80
2017-06-12T06:21:51.389Z,5.97
2017-06-12T06:24:19.684Z,6.13
2017-06-12T06:26:48.084Z,6.43
2017-06-12T06:29:16.387Z,5.63
2017-06-12T06:31:44.700Z,6.60
2017-06-12T06:34:13.035Z,5.40
2017-06-12T06:36:42.113Z,6.63
2017-06-12T06:39:10.391Z,5.63
2017-06-12T06:41:38.723Z,6.23
2017-06-12T06:44:07.017Z,5.80
2017-06-12T06:46:36.063Z,5.30
2017-06-12T06:49:04.384Z,6.97
2017-06-12T06:51:32.727Z,5.63
2017-06-12T06:54:01.819Z,6.03
2017-06-12T06:56:30.111Z,5.83
2017-06-12T06:58:58.408Z,5.77
2017-06-12T07:01:31.655Z,6.20
2017-06-12T07:03:59.946Z,5.47
2017-06-12T07:06:28.275Z,6.43
2017-06-12T07:08:56.571Z,6.43
2017-06-12T07:11:24.857Z,5.67
2017-06-12T07:13:53.192Z,5.13
2017-06-12T07:16:21.917Z,5.90
2017-06-12T07:18:50.251Z,5.90
2017-06-12T07:21:18.583Z,6.33
2017-06-12T07:23:47.680Z,6.30
2017-06-12T07:26:16.797Z,6.33
2017-06-12T07:28:45.904Z,6.80
2017-06-12T07:31:14.246Z,8.43
2017-06-12T07:33:43.459Z,7.00
2017-06-12T07:36:12.539Z,8.10
2017-06-12T07:38:40.880Z,6.80
2017-06-12T07:41:09.171Z,6.30
2017-06-12T07:43:37.502Z,5.07
2017-06-12T07:46:05.795Z,7.60
2017-06-12T07:48:38.863Z,6.00
2017-06-12T07:51:07.155Z,6.60
2017-06-12T07:53:36.212Z,6.07
2017-06-12T07:56:04.634Z,4.37
2017-06-12T07:58:32.942Z,4.47
2017-06-12T08:01:08.021Z,5.80
2017-06-12T08:03:36.303Z,5.40
2017-06-12T08:06:04.627Z,5.50
2017-06-12T08:08:32.947Z,5.50
2017-06-12T08:11:01.228Z,6.73
2017-06-12T08:13:31.307Z,5.00
2017-06-12T08:15:59.598Z,5.70
2017-06-12T08:18:27.891Z,5.47
2017-06-12T08:20:56.224Z,4.73
2017-06-12T08:23:39.078Z,3.30
2017-06-12T08:26:07.420Z,3.00
2017-06-12T08:28:35.712Z,3.30
2017-06-12T08:31:04.084Z,3.10
2017-06-12T08:33:33.251Z,2.13
2017-06-12T08:36:03.520Z,1.87
2017-06-12T08:38:31.809Z,2.17
2017-06-12T08:41:00.133Z,2.00
2017-06-12T08:43:28.423Z,1.70
2017-06-12T08:45:57.612Z,2.30
2017-06-12T08:48:25.905Z,2.63
2017-06-12T08:50:54.183Z,1.90
2017-06-12T08:53:22.573Z,1.77
2017-06-12T08:55:50.866Z,1.40
2017-06-12T08:58:19.159Z,2.30
2017-06-12T09:00:47.508Z,1.73
2017-06-12T09:03:15.791Z,1.70
2017-06-12T09:05:44.852Z,2.17
2017-06-12T09:08:13.194Z,1.97
2017-06-12T09:10:41.492Z,2.03
2017-06-12T09:13:10.543Z,1.37
2017-06-12T09:15:39.828Z,1.50
2017-06-12T09:18:08.164Z,2.17
2017-06-12T09:20:36.504Z,1.80
2017-06-12T09:23:04.798Z,1.80
2017-06-12T09:25:33.119Z,1.67
2017-06-12T09:28:01.454Z,2.33
2017-06-12T09:30:29.750Z,1.70
2017-06-12T09:33:20.669Z,1.77
2017-06-12T09:35:48.970Z,1.40
2017-06-12T09:38:18.075Z,2.17
2017-06-12T09:40:46.428Z,2.10
2017-06-12T09:43:14.720Z,1.77
2017-06-12T09:45:43.011Z,2.07
2017-06-12T09:48:11.353Z,2.10
2017-06-12T09:50:39.643Z,1.60
2017-06-12T09:53:07.939Z,1.73
2017-06-12T09:55:36.264Z,1.60
2017-06-12T09:58:04.655Z,1.60
2017-06-12T10:00:32.943Z,1.40
2017-06-12T10:03:01.399Z,1.43
2017-06-12T10:05:29.689Z,0.80
2017-06-12T10:07:58.079Z,1.37
2017-06-12T10:10:26.366Z,1.20
2017-06-12T10:12:54.647Z,1.10
2017-06-12T10:15:23.012Z,1.43
2017-06-12T10:17:51.303Z,1.50
2017-06-12T10:20:19.589Z,1.13
2017-06-12T10:22:47.916Z,1.73
2017-06-12T10:25:16.975Z,1.63
2017-06-12T10:27:46.003Z,1.03
2017-06-12T10:30:14.295Z,1.07
2017-06-12T10:32:42.586Z,1.37
2017-06-12T10:35:10.930Z,1.00
2017-06-12T10:37:39.233Z,1.30
2017-06-12T10:40:07.902Z,0.90
2017-06-12T10:42:36.219Z,1.70
2017-06-12T10:45:04.561Z,1.20
2017-06-12T10:47:32.849Z,1.07
2017-06-12T10:50:01.183Z,1.30
2017-06-12T10:52:29.481Z,1.00
2017-06-12T10:55:01.830Z,1.20
2017-06-12T10:57:30.123Z,0.90
2017-06-12T10:59:58.412Z,1.00
2017-06-12T11:02:26.747Z,1.40
2017-06-12T11:05:04.836Z,1.50
2017-06-12T11:07:33.948Z,1.20
2017-06-12T11:10:02.269Z,1.60
2017-06-12T11:12:31.323Z,1.47
2017-06-12T11:15:03.704Z,1.27
2017-06-12T11:17:31.983Z,0.97
2017-06-12T11:20:00.289Z,0.90
2017-06-12T11:22:44.483Z,1.27
2017-06-12T11:25:12.776Z,1.70
2017-06-12T11:27:56.760Z,1.37
2017-06-12T11:30:25.044Z,1.20
2017-06-12T11:32:53.343Z,1.60
2017-06-12T11:35:21.659Z,1.20
2017-06-12T11:37:49.956Z,0.80
2017-06-12T11:40:18.297Z,1.23
2017-06-12T11:42:46.585Z,1.20
2017-06-12T11:45:14.928Z,1.20
2017-06-12T11:47:43.215Z,1.03
2017-06-12T11:50:11.514Z,1.13
2017-06-12T11:52:40.621Z,1.17
2017-06-12T11:55:08.932Z,1.30
2017-06-12T11:57:37.264Z,1.10
2017-06-12T12:00:05.551Z,1.47
2017-06-12T12:02:33.847Z,1.00
2017-06-12T12:05:03.119Z,0.80
2017-06-12T12:07:31.412Z,1.10
2017-06-12T12:09:59.752Z,0.83
2017-06-12T12:12:28.811Z,1.30
2017-06-12T12:14:59.106Z,1.00
2017-06-12T12:17:27.391Z,0.93
2017-06-12T12:19:56.452Z,1.53
2017-06-12T12:22:24.784Z,1.60
2017-06-12T12:24:53.123Z,1.20
2017-06-12T12:27:27.325Z,3.40
2017-06-12T12:29:55.659Z,2.70
2017-06-12T12:32:24.787Z,1.30
2017-06-12T12:34:53.091Z,2.47
2017-06-12T12:37:21.415Z,1.33
2017-06-12T12:39:49.712Z,2.50
2017-06-12T12:42:18.073Z,1.50
2017-06-12T12:44:46.362Z,1.37
2017-06-12T12:47:14.647Z,1.10
2017-06-12T12:49:42.980Z,2.23
2017-06-12T12:52:11.276Z,1.23
2017-06-12T12:57:31.575Z,1.70
2017-06-12T12:59:59.900Z,1.80
2017-06-12T13:02:28.187Z,3.97
2017-06-12T13:04:56.524Z,2.07
2017-06-12T13:07:24.807Z,2.30
2017-06-12T13:09:53.139Z,3.90
2017-06-12T13:12:21.462Z,1.00
2017-06-12T13:14:49.761Z,1.10
2017-06-12T13:17:18.105Z,1.60
2017-06-12T13:19:47.171Z,1.37
2017-06-12T13:22:15.467Z,1.23
2017-06-12T13:24:43.787Z,1.10
2017-06-12T13:27:12.075Z,1.63
2017-06-12T13:29:41.163Z,1.30
2017-06-12T13:32:10.215Z,1.10
2017-06-12T13:34:40.514Z,1.17
2017-06-12T13:37:08.808Z,1.17
2017-06-12T13:39:37.868Z,1.50
2017-06-12T13:42:06.200Z,1.23
2017-06-12T13:44:34.496Z,1.27
2017-06-12T13:47:03.777Z,1.17
2017-06-12T13:49:32.062Z,1.43
2017-06-12T13:52:01.111Z,1.33
2017-06-12T13:54:29.456Z,1.03
2017-06-12T13:56:57.752Z,1.37
2017-06-12T13:59:26.835Z,1.57
2017-06-12T14:01:55.189Z,1.40
2017-06-12T14:04:23.475Z,2.10
2017-06-12T14:06:51.765Z,1.30
2017-06-12T14:09:20.104Z,1.30
2017-06-12T14:11:48.394Z,1.40
2017-06-12T14:14:16.726Z,2.90
2017-06-12T14:16:45.029Z,1.10
2017-06-12T14:19:13.367Z,1.07
2017-06-12T14:21:41.703Z,1.10
2017-06-12T14:24:10.005Z,1.20
2017-06-12T14:26:38.302Z,1.47
2017-06-12T14:29:06.653Z,1.73
2017-06-12T14:31:34.955Z,0.97
2017-06-12T14:34:03.243Z,1.03
2017-06-12T14:36:32.402Z,1.27
2017-06-12T14:39:00.700Z,1.97
2017-06-12T14:41:36.875Z,1.10
2017-06-12T14:44:05.167Z,0.80
2017-06-12T14:46:33.461Z,1.27
2017-06-12T14:49:01.812Z,2.27
2017-06-12T14:51:30.104Z,1.57
2017-06-12T14:53:58.447Z,1.40
2017-06-12T14:56:27.780Z,1.40
2017-06-12T14:58:56.343Z,1.40
2017-06-12T15:01:25.397Z,1.40
2017-06-12T15:03:53.742Z,1.80
2017-06-12T15:06:22.032Z,1.43
2017-06-12T15:08:50.324Z,1.43
2017-06-12T15:11:18.668Z,1.40
2017-06-12T15:13:47.560Z,2.00
2017-06-12T15:16:15.863Z,1.43
2017-06-12T15:18:44.187Z,2.20
2017-06-12T15:21:13.288Z,1.50
2017-06-12T15:23:41.585Z,1.43
2017-06-12T15:26:09.923Z,1.00
2017-06-12T15:28:38.208Z,1.00
2017-06-12T15:31:06.568Z,1.37
2017-06-12T15:33:40.870Z,1.20
2017-06-12T15:36:09.203Z,1.20
2017-06-12T15:38:37.547Z,1.00
2017-06-12T15:41:06.271Z,1.00
2017-06-12T15:43:34.567Z,1.30
2017-06-12T15:46:03.692Z,1.67
2017-06-12T15:48:37.775Z,1.30
2017-06-12T15:51:06.103Z,1.80
2017-06-12T15:53:34.399Z,3.10
2017-06-12T15:56:02.760Z,1.67
2017-06-12T15:58:36.913Z,1.17
2017-06-12T16:01:05.276Z,1.40
2017-06-12T16:03:33.623Z,2.03
2017-06-12T16:06:01.910Z,1.13
2017-06-12T16:08:36.373Z,1.10
2017-06-12T16:11:04.707Z,1.17
2017-06-12T16:13:33.083Z,1.03
2017-06-12T16:16:01.363Z,1.10
2017-06-12T16:18:29.655Z,0.90
2017-06-12T16:20:58.102Z,0.67
2017-06-12T16:23:26.393Z,1.27
2017-06-12T16:25:54.707Z,1.20
2017-06-12T16:28:23.035Z,1.00
2017-06-12T16:30:51.407Z,1.13
2017-06-12T16:33:19.707Z,1.03
2017-06-12T16:35:48.004Z,0.90
2017-06-12T16:38:16.779Z,1.17
2017-06-12T16:40:45.162Z,1.00
2017-06-12T16:43:13.466Z,1.20
2017-06-12T16:45:41.831Z,1.63
2017-06-12T16:48:10.132Z,1.90
2017-06-12T16:50:39.189Z,1.03
2017-06-12T16:53:07.531Z,1.07
2017-06-12T16:55:35.820Z,0.83
2017-06-12T16:58:10.002Z,1.20
2017-06-12T17:00:39.320Z,1.10
2017-06-12T17:03:07.607Z,1.10
2017-06-12T17:05:56.717Z,1.10
2017-06-12T17:08:26.979Z,0.90
2017-06-12T17:10:55.311Z,1.27
2017-06-12T17:13:23.595Z,1.07
2017-06-12T17:15:52.028Z,0.90
2017-06-12T17:18:20.425Z,1.60
2017-06-12T17:20:52.584Z,1.10
2017-06-12T17:23:20.920Z,1.00
2017-06-12T17:25:49.224Z,1.00
2017-06-12T17:28:19.499Z,1.17
2017-06-12T17:30:47.847Z,1.20
2017-06-12T17:33:16.171Z,0.70
2017-06-12T17:35:44.455Z,0.90
2017-06-12T17:38:12.779Z,0.70
2017-06-12T17:40:41.063Z,0.90
2017-06-12T17:43:09.449Z,1.40
2017-06-12T17:45:38.495Z,1.00
2017-06-12T17:48:06.777Z,1.07
2017-06-12T17:50:35.326Z,1.23
2017-06-12T17:53:03.674Z,1.77
2017-06-12T17:55:32.932Z,2.47
2017-06-12T17:58:01.219Z,1.40
2017-06-12T18:00:29.567Z,1.00
2017-06-12T18:02:57.863Z,1.00
2017-06-12T18:05:26.155Z,1.13
2017-06-12T18:07:54.531Z,3.30
2017-06-12T18:10:29.636Z,5.20
2017-06-12T18:12:58.841Z,2.60
2017-06-12T18:15:27.120Z,1.10
2017-06-12T18:17:55.399Z,1.67
2017-06-12T18:20:36.587Z,0.90
2017-06-12T18:23:05.975Z,1.40
2017-06-12T18:25:36.372Z,1.17
2017-06-12T18:28:04.826Z,2.03
2017-06-12T18:30:33.115Z,1.33
2017-06-12T18:33:02.179Z,7.27
2017-06-12T18:35:30.595Z,0.90
2017-06-12T18:37:59.067Z,1.20
2017-06-12T18:40:27.384Z,1.47
2017-06-12T18:43:01.070Z,1.43
2017-06-12T18:45:29.373Z,4.40
2017-06-12T18:47:57.759Z,7.73
2017-06-12T18:50:26.065Z,3.23
2017-06-12T18:52:55.519Z,1.87
2017-06-12T18:55:30.605Z,1.43
2017-06-12T18:57:58.920Z,1.10
2017-06-12T19:00:27.255Z,1.23
2017-06-12T19:02:55.548Z,10.57
2017-06-12T19:05:24.664Z,3.20
2017-06-12T19:07:52.989Z,5.37
2017-06-12T19:10:21.325Z,5.80
2017-06-12T19:12:53.592Z,4.97
2017-06-12T19:15:21.923Z,1.97
2017-06-12T19:17:50.216Z,4.57
2017-06-12T19:20:18.502Z,1.80
2017-06-12T19:22:51.476Z,2.43
2017-06-12T19:25:19.768Z,1.80
2017-06-12T19:27:50.014Z,2.20
2017-06-12T19:30:18.322Z,1.63
2017-06-12T19:32:46.655Z,1.50
2017-06-12T19:35:14.942Z,1.93
2017-06-12T19:37:44.233Z,3.40
2017-06-12T19:43:09.927Z,1.83
2017-06-12T19:45:40.036Z,2.70
2017-06-12T19:48:08.323Z,1.70
2017-06-12T19:50:36.669Z,1.53
2017-06-12T19:53:09.818Z,1.83
2017-06-12T19:55:38.891Z,2.17
2017-06-12T19:58:08.004Z,1.40
2017-06-12T20:00:36.607Z,2.10
2017-06-12T20:03:07.107Z,1.97
2017-06-12T20:05:35.643Z,1.57
2017-06-12T20:08:05.276Z,2.30
2017-06-12T20:10:34.416Z,1.67
2017-06-12T20:13:06.815Z,2.03
2017-06-12T20:15:35.143Z,2.97
2017-06-12T20:18:03.427Z,2.13
2017-06-12T20:20:46.898Z,1.60
2017-06-12T20:23:15.960Z,2.20
2017-06-12T20:25:44.304Z,2.00
2017-06-12T20:28:12.656Z,1.60
2017-06-12T20:30:40.980Z,1.57
2017-06-12T20:33:09.354Z,1.77
2017-06-12T20:35:37.683Z,1.27
2017-06-12T20:38:05.976Z,1.70
2017-06-12T20:40:34.337Z,1.70
2017-06-12T20:43:02.685Z,1.67
2017-06-12T20:45:31.022Z,1.97
2017-06-12T20:47:59.359Z,1.30
2017-06-12T20:50:27.649Z,1.60
2017-06-12T20:52:55.932Z,1.53
2017-06-12T20:55:25.035Z,1.80
2017-06-12T20:57:53.399Z,1.53
2017-06-12T21:00:21.683Z,1.40
2017-06-12T21:02:50.143Z,1.90
2017-06-12T21:05:19.500Z,1.60
2017-06-12T21:07:47.846Z,1.40
2017-06-12T21:10:23.632Z,1.30
2017-06-12T21:12:51.975Z,1.10
2017-06-12T21:15:20.275Z,1.10
2017-06-12T21:30:43.980Z,1.43
2017-06-12T21:33:12.275Z,1.63
2017-06-12T21:35:40.611Z,1.50
2017-06-12T21:38:08.895Z,1.10
2017-06-12T21:40:37.204Z,1.40
2017-06-12T21:43:05.543Z,1.30
2017-06-12T21:45:33.884Z,1.20
2017-06-12T21:48:02.168Z,2.10
2017-06-12T21:50:30.456Z,1.73
2017-06-12T21:52:58.800Z,1.60
2017-06-12T21:55:27.852Z,1.87
2017-06-12T21:57:56.135Z,1.60
2017-06-12T22:00:24.475Z,1.37
2017-06-12T22:02:52.759Z,1.40
2017-06-12T22:05:21.039Z,1.50
2017-06-12T22:07:49.359Z,1.33
2017-06-12T22:10:17.691Z,1.47
2017-06-12T22:12:45.979Z,1.57
2017-06-12T22:15:14.273Z,1.57
2017-06-12T22:17:42.870Z,1.33
2017-06-12T22:20:11.163Z,1.70
2017-06-12T22:22:39.542Z,1.23
2017-06-12T22:25:07.858Z,1.23
2017-06-12T22:27:36.208Z,1.57
2017-06-12T22:30:05.295Z,1.33
2017-06-12T22:32:33.656Z,1.47
2017-06-12T22:35:01.979Z,1.50
2017-06-12T22:37:30.259Z,1.60
2017-06-12T22:39:58.552Z,1.73
2017-06-12T22:42:26.935Z,1.70
2017-06-12T22:44:55.364Z,1.67
2017-06-12T22:47:24.433Z,1.80
2017-06-12T22:49:52.791Z,2.30
2017-06-12T22:52:21.111Z,2.20
2017-06-12T22:54:49.487Z,1.90
2017-06-12T22:57:17.868Z,2.23
2017-06-12T22:59:46.963Z,1.77
2017-06-12T23:02:15.307Z,1.93
2017-06-12T23:04:43.592Z,1.97
2017-06-12T23:07:11.874Z,2.10
2017-06-12T23:09:40.303Z,1.90
2017-06-12T23:12:09.031Z,2.40
2017-06-12T23:14:37.347Z,2.00
2017-06-12T23:17:06.395Z,1.73
2017-06-12T23:19:34.723Z,1.40
2017-06-12T23:22:03.771Z,1.57
2017-06-12T23:24:32.063Z,1.73
2017-06-12T23:27:00.399Z,1.20
2017-06-12T23:29:28.691Z,1.43
2017-06-12T23:31:56.975Z,2.23
2017-06-12T23:34:25.295Z,1.20
2017-06-12T23:36:54.493Z,2.13
2017-06-12T23:39:23.547Z,1.00
2017-06-12T23:41:51.963Z,1.70
2017-06-12T23:44:21.009Z,1.50
2017-06-12T23:46:49.288Z,1.53
2017-06-12T23:49:17.611Z,1.83
2017-06-12T23:51:45.899Z,1.13
2017-06-12T23:54:15.008Z,1.90
2017-06-12T23:56:43.287Z,1.57
2017-06-12T23:59:11.578Z,1.43
